Laukaa, Finland
Kieli:  Suomi
-9°C CurCond
Päivitetty17/02/2018 23:35 
 

Lähistön Lentoasemien Säätiloja:

 

EFJY - Jyvaskyla (mil/C,) Finland
Etäisyys Sääasemalta: PKo 21km
Päivitetty: 17/02/2018 23:20
Heikkoa Lumisadetta, Pilvistä
Heikkoa Lumisadetta, Pilvistä
 Tuulen suunta Lu
Tuuli: Lu 6 km/h
Lämpötila: -8°C
Kastepiste: -9°C
Ilmankosteus: 93%
Ilmanpaine: 1022 hPa
Yhteenveto: Heikkoa Lumisadetta
Pilvisyys: Pilvistä
Näkyvyys: 6 km
Pilvisyystiedot: Pilvistä 213 m
2018/02/17 21:20 EFJY 172120Z AUTO 31003KT 6000 -SN OVC007 M08/M09 Q1022
EFHA - Halli (fin-Afb), Finland
Etäisyys Sääasemalta: Lo 56km
Päivitetty: 17/02/2018 23:20
Heikkoa Lumisadetta, Pilvistä
Heikkoa Lumisadetta, Pilvistä
 Tuulen suunta PKo
Tuuli: PKo 7 km/h
Lämpötila: -7°C
Tuulen purevuus: -11°C
Kastepiste: -8°C
Ilmankosteus: 93%
Ilmanpaine: 1022 hPa
Yhteenveto: Heikkoa Lumisadetta
Pilvisyys: Pilvistä
Näkyvyys: 3 km
Pilvisyystiedot: Pilvistä 244 m
2018/02/17 21:20 EFHA 172120Z AUTO 03004KT 2800 -SN OVC008 M07/M08 Q1022
EFMI - Mikkeli, Finland
Etäisyys Sääasemalta: IKa 105km
Päivitetty: 17/02/2018 23:20
Selkeätä
Selkeätä
 Tuulen suunta Tyyntä
Tuuli: Tyyntä
Lämpötila: -13°C
Kastepiste: -14°C
Ilmankosteus: 92%
Ilmanpaine: 1023 hPa
Pilvisyys: Selkeätä
Näkyvyys: 6 km
2018/02/17 21:20 EFMI 172120Z AUTO 00000KT 6000 SKC M13/M14 Q1023
 
EFTP - Tampere/Pirkkala, Finland
Etäisyys Sääasemalta: Lo 135km
Päivitetty: 17/02/2018 23:20
Heikkoa Lumisadetta, Enimmäkseen pilvistä
Heikkoa Lumisadetta, Enimmäkseen pilvistä
 Tuulen suunta Ko
Tuuli: Ko 4 km/h
Lämpötila: -11°C
Kastepiste: -12°C
Ilmankosteus: 92%
Ilmanpaine: 1023 hPa
Yhteenveto: Heikkoa Lumisadetta
Pilvisyys: Enimmäkseen pilvistä
Näkyvyys: 5 km
Pilvisyystiedot: Puolipilvistä 427 m
Enimmäkseen pilvistä 1280 m
2018/02/17 21:20 EFTP 172120Z AUTO 05002KT 5000 -SN SCT014 BKN042 M11/M12 Q1023
EFKU - Kuopio (mil/Civ), Finland
Etäisyys Sääasemalta: Ko 146km
Päivitetty: 17/02/2018 23:20
Puolipilvistä
Puolipilvistä
 Tuulen suunta Lu
Tuuli: Lu 4 km/h
Lämpötila: -12°C
Kastepiste: -14°C
Ilmankosteus: 85%
Ilmanpaine: 1023 hPa
Pilvisyys: Puolipilvistä
Näkyvyys: 5 km
Pilvisyystiedot: Puolipilvistä 2316 m
2018/02/17 21:20 EFKU 172120Z AUTO 31002KT 5000 SCT076 M12/M14 Q1023
EFSI - Seinajoki-Ilmajo, Finland
Etäisyys Sääasemalta: LLu 149km
Päivitetty: 17/02/2018 23:20
Heikkoa Lumisadetta, Pilvistä
Heikkoa Lumisadetta, Pilvistä
 Tuulen suunta Lu
Tuuli: Lu 2 km/h
Lämpötila: -9°C
Kastepiste: -10°C
Ilmankosteus: 93%
Ilmanpaine: 1023 hPa
Yhteenveto: Heikkoa Lumisadetta
Pilvisyys: Pilvistä
Näkyvyys: 7 km
Pilvisyystiedot: Pilvistä 3200 m
2018/02/17 21:20 EFSI 172120Z AUTO 31001KT 7000 -SN OVC105 M09/M10 Q1023